Terminal Aerodrome Forecast
Issued by NWS

Current Version | Previous Version | Text Only | Print | Product List | Glossary On
Versions: 1 2 3 4 5 6 7 8 9 10 11 12 13 14 15 16 17 18 19 20 21 22 23 24
000 FTUS41 KOKX 211700 RRA TAFGON TAF KGON 211741Z 2118/2218 02008KT 6SM -DZ BKN015 OVC025 FM220000 03004KT P6SM OVC015 FM221200 04005KT P6SM BKN010 OVC020 FM221700 07007KT P6SM BKN010 OVC020=

USA.gov is the U.S. government's official web portal to all federal, state and local government web resources and services.